Common Faith — SVBM6 — position and weather

sailwx.info

Track history (hours):
 
Tides and Currents Weather Stations Pressure Air Temp Water Temp Dewpoint Dewpoint Depression Visibility Wind Speed Wind Dir Waves Ship Positions

Common Faith

Last reported at 2018-Jul-06 03:06 UTC. Time now 2018-Jul-22 10:12 UTC.
Position N 01°19' E 103°20'.
Warning: this ship's position is 16 days out of date.

Length 190 m; draft 13.2 m.

Type: Cargo ship. MMSI: 241166000.

Date/timePositionNaut miles runAvg speedWind from/ knotsBaromVisibWave heightAir tempDewpointWater temp
2018-Jul-06 03:06N 01°19' E 103°20'212.2
2018-Jul-06 02:54N 01°17' E 103°22'511.7
2018-Jul-06 02:30N 01°14' E 103°25'612.2
2018-Jul-06 01:58N 01°13' E 103°32'511.5
2018-Jul-06 01:30N 01°12' E 103°37'510.8
2018-Jul-06 00:59N 01°10' E 103°42'4 8.6
2018-Jul-06 00:30N 01°10' E 103°46'5 9.5
2018-Jul-06 00:00N 01°12' E 103°51'5 9.5
2018-Jul-05 23:30N 01°14' E 103°55'5 9.4
2018-Jul-05 23:00N 01°15' E 103°59'2 4.6
2018-Jul-05 22:29N 01°17' E 104°00'0 0.0
2018-Jul-05 21:59N 01°17' E 104°00'0 0.0
2018-Jul-05 21:27N 01°17' E 104°00'0 0.0
2018-Jul-05 20:59N 01°17' E 104°00'0 0.0
2018-Jul-05 20:26N 01°17' E 104°00'0 0.2
2018-Jul-05 19:57N 01°17' E 104°00'0 0.2
2018-Jul-05 19:27N 01°17' E 104°00'0 0.5
2018-Jul-05 18:47N 01°18' E 104°00'0 1.2
2018-Jul-05 18:27N 01°17' E 104°00'0 0.1
2018-Jul-05 17:59N 01°17' E 104°00'0 0.0
2018-Jul-05 17:29N 01°17' E 104°00'0 0.0
2018-Jul-05 17:00N 01°17' E 104°00'0 0.0
2018-Jul-05 16:30N 01°17' E 104°00'0 0.0
2018-Jul-05 15:50N 01°17' E 104°00'0 0.0
2018-Jul-05 15:23N 01°17' E 104°00'0 0.0
2018-Jul-05 14:47N 01°17' E 104°00'0 0.0
2018-Jul-05 13:59N 01°17' E 104°00'0 0.0
2018-Jul-05 13:30N 01°17' E 104°00'0 0.0
2018-Jul-05 11:50N 01°17' E 104°00'0 0.1
2018-Jul-05 11:21N 01°17' E 104°00'1 2.3
2018-Jul-05 11:00N 01°17' E 103°59'2 4.3
2018-Jul-05 10:30N 01°16' E 103°58'3 5.9
2018-Jul-05 10:00N 01°16' E 104°01'4 8.1
2018-Jul-05 09:30N 01°16' E 104°05'612.0
2018-Jul-05 08:59N 01°17' E 104°11'813.0
2018-Jul-05 08:23N 01°18' E 104°19'912.7
2018-Jul-05 07:38N 01°24' E 104°26'  
Track history (hours):
 
Tides and Currents Weather Stations Pressure Air Temp Water Temp Dewpoint Dewpoint Depression Visibility Wind Speed Wind Dir Waves Ship Positions

Common Faith

Last reported at 2018-Jul-06 03:06 UTC. Time now 2018-Jul-22 10:12 UTC.
Position N 01°19' E 103°20'.
Warning: this ship's position is 16 days out of date.

Length 190 m; draft 13.2 m.

Type: Cargo ship. MMSI: 241166000.

Date/timePositionNaut miles runAvg speedWind from/ knotsBaromVisibWave heightAir tempDewpointWater temp
2018-Jul-06 03:06N 01°19' E 103°20'212.2
2018-Jul-06 02:54N 01°17' E 103°22'511.7
2018-Jul-06 02:30N 01°14' E 103°25'612.2
2018-Jul-06 01:58N 01°13' E 103°32'511.5
2018-Jul-06 01:30N 01°12' E 103°37'510.8
2018-Jul-06 00:59N 01°10' E 103°42'4 8.6
2018-Jul-06 00:30N 01°10' E 103°46'5 9.5
2018-Jul-06 00:00N 01°12' E 103°51'5 9.5
2018-Jul-05 23:30N 01°14' E 103°55'5 9.4
2018-Jul-05 23:00N 01°15' E 103°59'2 4.6
2018-Jul-05 22:29N 01°17' E 104°00'0 0.0
2018-Jul-05 21:59N 01°17' E 104°00'0 0.0
2018-Jul-05 21:27N 01°17' E 104°00'0 0.0
2018-Jul-05 20:59N 01°17' E 104°00'0 0.0
2018-Jul-05 20:26N 01°17' E 104°00'0 0.2
2018-Jul-05 19:57N 01°17' E 104°00'0 0.2
2018-Jul-05 19:27N 01°17' E 104°00'0 0.5
2018-Jul-05 18:47N 01°18' E 104°00'0 1.2
2018-Jul-05 18:27N 01°17' E 104°00'0 0.1
2018-Jul-05 17:59N 01°17' E 104°00'0 0.0
2018-Jul-05 17:29N 01°17' E 104°00'0 0.0
2018-Jul-05 17:00N 01°17' E 104°00'0 0.0
2018-Jul-05 16:30N 01°17' E 104°00'0 0.0
2018-Jul-05 15:50N 01°17' E 104°00'0 0.0
2018-Jul-05 15:23N 01°17' E 104°00'0 0.0
2018-Jul-05 14:47N 01°17' E 104°00'0 0.0
2018-Jul-05 13:59N 01°17' E 104°00'0 0.0
2018-Jul-05 13:30N 01°17' E 104°00'0 0.0
2018-Jul-05 11:50N 01°17' E 104°00'0 0.1
2018-Jul-05 11:21N 01°17' E 104°00'1 2.3
2018-Jul-05 11:00N 01°17' E 103°59'2 4.3
2018-Jul-05 10:30N 01°16' E 103°58'3 5.9
2018-Jul-05 10:00N 01°16' E 104°01'4 8.1
2018-Jul-05 09:30N 01°16' E 104°05'612.0
2018-Jul-05 08:59N 01°17' E 104°11'813.0
2018-Jul-05 08:23N 01°18' E 104°19'912.7
2018-Jul-05 07:38N 01°24' E 104°26'  

Dump ship's entire track history